Time;durP1;ratioP1;P1;durP2;ratioP2;P2;SDS_P1;SDS_P2;PMS_P1;PMS_P2;Temp;Humidity;BMP_temperature;BMP_pressure;BME280_temperature;BME280_humidity;BME280_pressure;Samples;Min_cycle;Max_cycle;Signal;HPM_P1;HPM_P2
2022/12/21 00:00:19;;;;;;;14.90;3.33;;;;;;;;;;4986310;28;20026;-43
2022/12/21 00:02:44;;;;;;;15.02;3.17;;;;;;;;;;4990174;28;20047;-42
2022/12/21 00:05:10;;;;;;;11.43;3.55;;;;;;;;;;4988379;28;20041;-42
2022/12/21 00:07:35;;;;;;;19.65;3.95;;;;;;;;;;4988473;28;20133;-43
2022/12/21 00:10:01;;;;;;;13.10;2.65;;;;;;;;;;4986520;28;20045;-46
2022/12/21 00:12:26;;;;;;;12.05;3.25;;;;;;;;;;4985306;28;20408;-43
2022/12/21 00:14:52;;;;;;;14.13;3.60;;;;;;;;;;4987621;28;20018;-44
2022/12/21 00:17:17;;;;;;;12.55;3.30;;;;;;;;;;4988103;28;20046;-42
2022/12/21 00:19:43;;;;;;;14.90;2.78;;;;;;;;;;4984851;28;20027;-43
2022/12/21 00:22:09;;;;;;;13.18;3.08;;;;;;;;;;4987985;28;20121;-48
2022/12/21 00:24:35;;;;;;;12.73;3.13;;;;;;;;;;4989339;28;20165;-46
2022/12/21 00:27:00;;;;;;;17.77;3.50;;;;;;;;;;4989250;28;20042;-42
2022/12/21 00:29:26;;;;;;;9.27;3.20;;;;;;;;;;4987905;28;20033;-43
2022/12/21 00:31:51;;;;;;;17.13;4.43;;;;;;;;;;4990534;28;20499;-42
2022/12/21 00:34:17;;;;;;;14.18;3.45;;;;;;;;;;4986523;28;20034;-44
2022/12/21 00:36:43;;;;;;;7.70;3.15;;;;;;;;;;4985224;28;20037;-47
2022/12/21 00:39:08;;;;;;;13.13;3.10;;;;;;;;;;4986222;28;20030;-46
2022/12/21 00:41:34;;;;;;;9.90;2.95;;;;;;;;;;4992777;28;20034;-42
2022/12/21 00:43:59;;;;;;;10.90;3.35;;;;;;;;;;4990786;28;20041;-42
2022/12/21 00:46:29;;;;;;;9.82;2.88;;;;;;;;;;4993558;28;20037;-44
2022/12/21 00:48:56;;;;;;;26.60;4.05;;;;;;;;;;4981632;28;20038;-42
2022/12/21 00:51:23;;;;;;;16.73;3.80;;;;;;;;;;4989356;28;20023;-45
2022/12/21 00:53:48;;;;;;;16.50;3.08;;;;;;;;;;4988241;28;20042;-46
2022/12/21 00:56:15;;;;;;;12.75;3.00;;;;;;;;;;4988323;28;20042;-42
2022/12/21 00:58:40;;;;;;;16.05;3.35;;;;;;;;;;4987636;28;20050;-45
2022/12/21 01:01:20;;;;;;;12.38;3.35;;;;;;;;;;4989085;28;20026;-43
2022/12/21 01:03:46;;;;;;;11.23;3.55;;;;;;;;;;4987020;28;20042;-43
2022/12/21 01:06:17;;;;;;;20.63;3.40;;;;;;;;;;4990443;28;20045;-45
2022/12/21 01:08:43;;;;;;;19.02;3.50;;;;;;;;;;4986463;28;20042;-46
2022/12/21 01:11:10;;;;;;;19.58;3.78;;;;;;;;;;4988260;28;20030;-43
2022/12/21 01:13:36;;;;;;;14.90;3.22;;;;;;;;;;4988740;28;20403;-45
2022/12/21 01:16:01;;;;;;;17.42;4.55;;;;;;;;;;4989833;28;20046;-43
2022/12/21 01:18:27;;;;;;;22.10;3.67;;;;;;;;;;4982002;28;20051;-42
2022/12/21 01:20:54;;;;;;;8.73;3.70;;;;;;;;;;4986374;28;20054;-42
2022/12/21 01:23:20;;;;;;;17.15;3.67;;;;;;;;;;4988210;28;20038;-46
2022/12/21 01:25:46;;;;;;;14.02;3.67;;;;;;;;;;4985414;28;20041;-43
2022/12/21 01:28:12;;;;;;;22.63;5.32;;;;;;;;;;4986928;28;20042;-43
2022/12/21 01:30:38;;;;;;;13.85;3.88;;;;;;;;;;4988922;28;20030;-44
2022/12/21 01:33:18;;;;;;;11.43;3.75;;;;;;;;;;4986535;28;20038;-42
2022/12/21 01:35:44;;;;;;;15.68;4.07;;;;;;;;;;4986690;28;20081;-43
2022/12/21 01:38:11;;;;;;;10.35;4.10;;;;;;;;;;4987937;28;20097;-43
2022/12/21 01:40:37;;;;;;;12.65;3.45;;;;;;;;;;4987199;28;20026;-42
2022/12/21 01:43:40;;;;;;;21.58;3.95;;;;;;;;;;4985125;28;20157;-43
2022/12/21 01:46:11;;;;;;;15.15;4.07;;;;;;;;;;4988482;28;20038;-43
2022/12/21 01:48:42;;;;;;;19.70;5.05;;;;;;;;;;4985888;28;20908;-42
2022/12/21 01:51:09;;;;;;;10.20;4.22;;;;;;;;;;4985661;28;20032;-43
2022/12/21 01:53:42;;;;;;;14.27;4.32;;;;;;;;;;4988942;28;20085;-44
2022/12/21 01:56:09;;;;;;;14.68;4.78;;;;;;;;;;4987664;28;20096;-43
2022/12/21 01:58:36;;;;;;;14.88;4.93;;;;;;;;;;4985716;28;20142;-42
2022/12/21 02:01:03;;;;;;;15.95;4.30;;;;;;;;;;4989571;28;20054;-42
2022/12/21 02:03:41;;;;;;;13.57;4.38;;;;;;;;;;4985407;28;20410;-42
2022/12/21 02:06:09;;;;;;;15.23;3.47;;;;;;;;;;4986602;28;20041;-42
2022/12/21 02:08:35;;;;;;;11.60;4.05;;;;;;;;;;4986893;28;20125;-42
2022/12/21 02:11:02;;;;;;;17.02;3.83;;;;;;;;;;4984800;28;20555;-45
2022/12/21 02:13:27;;;;;;;24.27;4.68;;;;;;;;;;4986652;28;20156;-44
2022/12/21 02:15:59;;;;;;;15.15;4.35;;;;;;;;;;4987113;28;20061;-42
2022/12/21 02:18:47;;;;;;;17.92;4.20;;;;;;;;;;4982522;28;20057;-41
2022/12/21 02:21:37;;;;;;;13.23;3.42;;;;;;;;;;4988609;28;20066;-44
2022/12/21 02:24:21;;;;;;;15.30;3.60;;;;;;;;;;4985532;28;20555;-42
2022/12/21 02:27:22;;;;;;;11.55;3.55;;;;;;;;;;4986247;28;20046;-42
2022/12/21 02:30:18;;;;;;;13.35;3.80;;;;;;;;;;4958608;28;20133;-45
2022/12/21 02:33:15;;;;;;;19.08;3.78;;;;;;;;;;4976143;28;20069;-42
2022/12/21 02:35:40;;;;;;;15.35;3.42;;;;;;;;;;4968105;28;20121;-42
2022/12/21 02:38:15;;;;;;;13.25;3.83;;;;;;;;;;4980799;28;20514;-42
2022/12/21 02:40:55;;;;;;;16.08;4.15;;;;;;;;;;4986821;28;20558;-42
2022/12/21 02:46:37;;;;;;;20.50;4.25;;;;;;;;;;4981991;28;20554;-43
2022/12/21 02:49:11;;;;;;;17.20;3.65;;;;;;;;;;4987599;28;20463;-42
2022/12/21 02:51:51;;;;;;;15.18;4.07;;;;;;;;;;4989445;28;20034;-46
2022/12/21 02:54:17;;;;;;;25.30;3.88;;;;;;;;;;4984313;28;20094;-43
2022/12/21 02:56:43;;;;;;;14.73;4.30;;;;;;;;;;4985457;28;20042;-42
2022/12/21 02:59:12;;;;;;;25.25;5.53;;;;;;;;;;4984902;28;20043;-43
2022/12/21 03:02:04;;;;;;;16.75;5.28;;;;;;;;;;4985937;28;20029;-42
2022/12/21 03:04:52;;;;;;;27.45;7.32;;;;;;;;;;4985697;28;20034;-45
2022/12/21 03:07:53;;;;;;;19.00;6.38;;;;;;;;;;4987477;28;20639;-42
2022/12/21 03:10:18;;;;;;;19.50;4.88;;;;;;;;;;4944201;28;20042;-42
2022/12/21 03:12:44;;;;;;;14.23;5.22;;;;;;;;;;4943591;28;20815;-42
2022/12/21 03:15:36;;;;;;;22.88;6.82;;;;;;;;;;4946481;28;20032;-42
2022/12/21 03:18:40;;;;;;;27.27;9.57;;;;;;;;;;4943504;28;20505;-44
2022/12/21 03:21:06;;;;;;;28.95;10.90;;;;;;;;;;4890614;29;20048;-47
2022/12/21 03:23:51;;;;;;;33.05;9.25;;;;;;;;;;4905927;29;20044;-43
2022/12/21 03:26:33;;;;;;;24.25;7.47;;;;;;;;;;4908696;29;20099;-42
2022/12/21 03:29:01;;;;;;;17.35;5.35;;;;;;;;;;4908220;29;20040;-42
2022/12/21 03:31:31;;;;;;;19.48;4.90;;;;;;;;;;4908099;29;20044;-40
2022/12/21 03:34:05;;;;;;;18.65;6.50;;;;;;;;;;4907449;29;20040;-43
2022/12/21 03:36:37;;;;;;;20.20;5.30;;;;;;;;;;4908430;29;20151;-43
2022/12/21 03:39:12;;;;;;;15.73;3.97;;;;;;;;;;4905612;29;20168;-42
2022/12/21 03:41:46;;;;;;;16.27;6.05;;;;;;;;;;4907152;29;20496;-42
2022/12/21 03:44:17;;;;;;;16.60;4.95;;;;;;;;;;4917263;29;20048;-42
2022/12/21 03:46:50;;;;;;;22.13;5.50;;;;;;;;;;4930187;29;20496;-43
2022/12/21 03:49:37;;;;;;;18.60;4.82;;;;;;;;;;4926147;29;20051;-45
2022/12/21 03:52:09;;;;;;;17.30;4.95;;;;;;;;;;4929208;28;20571;-43
2022/12/21 03:54:53;;;;;;;16.55;5.35;;;;;;;;;;4929167;29;20071;-42
2022/12/21 03:57:20;;;;;;;34.20;7.05;;;;;;;;;;4958209;28;20045;-42
2022/12/21 03:59:50;;;;;;;20.42;7.38;;;;;;;;;;4987738;28;20045;-43
2022/12/21 04:02:50;;;;;;;26.25;6.88;;;;;;;;;;4990423;28;20049;-42
2022/12/21 04:05:20;;;;;;;34.50;14.10;;;;;;;;;;4995512;28;20080;-42
2022/12/21 04:07:48;;;;;;;83.43;44.58;;;;;;;;;;4996213;28;20045;-42
2022/12/21 04:10:16;;;;;;;41.42;24.88;;;;;;;;;;4990773;28;20025;-42
2022/12/21 04:12:42;;;;;;;23.88;9.77;;;;;;;;;;4998143;28;20038;-42
2022/12/21 04:15:12;;;;;;;12.50;4.97;;;;;;;;;;4993632;28;20032;-42
2022/12/21 04:17:39;;;;;;;20.38;5.57;;;;;;;;;;4995241;28;20068;-42
2022/12/21 04:20:07;;;;;;;14.50;4.32;;;;;;;;;;4995692;28;20034;-42
2022/12/21 04:28:10;;;;;;;22.23;4.00;;;;;;;;;;4986723;28;20052;-42
2022/12/21 04:30:41;;;;;;;10.80;3.60;;;;;;;;;;4994899;28;20109;-43
2022/12/21 04:33:11;;;;;;;12.68;3.80;;;;;;;;;;4995684;28;20038;-41
2022/12/21 04:37:30;;;;;;;10.80;3.70;;;;;;;;;;4998558;28;20042;-42
2022/12/21 04:38:23;;;;;;;10.23;3.53;;;;;;;;;;4998920;28;20049;-45
2022/12/21 04:40:53;;;;;;;16.38;3.95;;;;;;;;;;4994155;28;20038;-45
2022/12/21 04:43:18;;;;;;;12.32;4.15;;;;;;;;;;4981182;28;20610;-42
2022/12/21 04:45:43;;;;;;;16.95;5.70;;;;;;;;;;4988724;28;20054;-42
2022/12/21 04:48:09;;;;;;;15.45;4.35;;;;;;;;;;4988325;28;20377;-41
2022/12/21 04:50:38;;;;;;;12.88;4.65;;;;;;;;;;4986881;28;20088;-42
2022/12/21 04:53:03;;;;;;;11.80;3.42;;;;;;;;;;4988162;28;20073;-41
2022/12/21 04:55:28;;;;;;;11.25;4.15;;;;;;;;;;4983186;28;20503;-41
2022/12/21 04:57:54;;;;;;;14.75;3.55;;;;;;;;;;4987055;28;20064;-41
2022/12/21 05:00:19;;;;;;;13.77;3.42;;;;;;;;;;4985479;28;20494;-44
2022/12/21 05:02:45;;;;;;;16.80;3.88;;;;;;;;;;4987118;28;20093;-44
2022/12/21 05:05:10;;;;;;;15.45;3.95;;;;;;;;;;4988326;28;20026;-42
2022/12/21 05:07:36;;;;;;;14.43;3.67;;;;;;;;;;4987223;28;20081;-47
2022/12/21 05:10:01;;;;;;;13.88;3.90;;;;;;;;;;4984923;28;20033;-42
2022/12/21 05:12:27;;;;;;;12.88;3.63;;;;;;;;;;4985318;28;20116;-43
2022/12/21 05:14:52;;;;;;;13.82;3.58;;;;;;;;;;4986926;28;20132;-43
2022/12/21 05:17:17;;;;;;;13.30;3.83;;;;;;;;;;4987734;28;20585;-42
2022/12/21 05:19:46;;;;;;;15.60;4.57;;;;;;;;;;4988106;28;20026;-43
2022/12/21 05:22:20;;;;;;;9.38;3.28;;;;;;;;;;4988070;28;20415;-43
2022/12/21 05:24:46;;;;;;;12.68;3.70;;;;;;;;;;4986294;28;20058;-42
2022/12/21 05:27:12;;;;;;;20.63;4.45;;;;;;;;;;4988097;28;20073;-41
2022/12/21 05:29:38;;;;;;;10.73;3.17;;;;;;;;;;4987355;28;20149;-41
2022/12/21 05:32:03;;;;;;;14.10;3.65;;;;;;;;;;4983823;28;20053;-42
2022/12/21 05:34:29;;;;;;;14.95;3.90;;;;;;;;;;4984122;28;20124;-43
2022/12/21 05:36:54;;;;;;;5.63;3.20;;;;;;;;;;4981937;28;20181;-43
2022/12/21 05:39:19;;;;;;;6.22;3.38;;;;;;;;;;4995023;28;20418;-42
2022/12/21 05:41:45;;;;;;;15.63;4.20;;;;;;;;;;4986320;28;20061;-42
2022/12/21 05:44:10;;;;;;;12.13;4.45;;;;;;;;;;4987393;28;20025;-42
2022/12/21 05:46:36;;;;;;;11.43;3.92;;;;;;;;;;4989510;28;20037;-42
2022/12/21 05:49:01;;;;;;;9.93;3.40;;;;;;;;;;4986462;28;20030;-43
2022/12/21 05:51:27;;;;;;;9.27;3.65;;;;;;;;;;4985837;28;20034;-40
2022/12/21 05:53:53;;;;;;;9.98;3.63;;;;;;;;;;4985932;28;21695;-42
2022/12/21 05:56:19;;;;;;;12.07;3.60;;;;;;;;;;4984177;28;20406;-42
2022/12/21 05:58:45;;;;;;;12.23;3.35;;;;;;;;;;4987717;28;20046;-43
2022/12/21 06:01:11;;;;;;;11.23;3.75;;;;;;;;;;4985135;28;20487;-42
2022/12/21 06:03:37;;;;;;;11.32;3.47;;;;;;;;;;4983232;28;20042;-42
2022/12/21 06:06:14;;;;;;;9.40;3.17;;;;;;;;;;4985083;28;20105;-43
2022/12/21 06:08:39;;;;;;;9.63;3.45;;;;;;;;;;4989823;28;20513;-43
2022/12/21 06:11:07;;;;;;;9.75;3.42;;;;;;;;;;4985727;28;20050;-42
2022/12/21 06:13:33;;;;;;;11.70;3.53;;;;;;;;;;4989537;28;20487;-42
2022/12/21 06:16:13;;;;;;;15.05;3.20;;;;;;;;;;4989128;28;20129;-42
2022/12/21 06:18:39;;;;;;;12.48;3.65;;;;;;;;;;4992553;28;20125;-43
2022/12/21 06:21:06;;;;;;;11.35;4.18;;;;;;;;;;4988013;28;20026;-43
2022/12/21 06:23:32;;;;;;;13.32;5.05;;;;;;;;;;4987686;28;20399;-44
2022/12/21 06:25:59;;;;;;;9.85;3.25;;;;;;;;;;4990872;28;20038;-45
2022/12/21 06:28:26;;;;;;;11.57;3.70;;;;;;;;;;4983066;28;20035;-41
2022/12/21 06:30:53;;;;;;;12.48;4.22;;;;;;;;;;4983703;28;20575;-43
2022/12/21 06:33:20;;;;;;;9.48;3.28;;;;;;;;;;4982250;28;20102;-42
2022/12/21 06:35:47;;;;;;;9.82;3.97;;;;;;;;;;4989555;28;20409;-43
2022/12/21 06:38:12;;;;;;;9.38;3.40;;;;;;;;;;4989034;28;20034;-43
2022/12/21 06:40:37;;;;;;;19.48;3.60;;;;;;;;;;4988270;28;20622;-42
2022/12/21 06:43:03;;;;;;;8.13;3.22;;;;;;;;;;4984887;28;20046;-43
2022/12/21 06:45:28;;;;;;;14.70;5.00;;;;;;;;;;4991003;28;23071;-43
2022/12/21 06:47:54;;;;;;;13.93;7.25;;;;;;;;;;4986793;28;20045;-42
2022/12/21 06:50:22;;;;;;;12.50;5.97;;;;;;;;;;4989941;28;20395;-43
2022/12/21 06:52:49;;;;;;;10.48;4.80;;;;;;;;;;4990662;28;20080;-43
2022/12/21 06:55:15;;;;;;;9.50;3.47;;;;;;;;;;4990489;28;20042;-43
2022/12/21 06:57:41;;;;;;;10.68;5.10;;;;;;;;;;4988484;28;20034;-44
2022/12/21 07:00:09;;;;;;;8.85;4.05;;;;;;;;;;4984885;28;20034;-43
2022/12/21 07:02:35;;;;;;;10.25;3.80;;;;;;;;;;4990940;28;20042;-42
2022/12/21 07:05:00;;;;;;;13.73;4.32;;;;;;;;;;4990128;28;20491;-42
2022/12/21 07:07:26;;;;;;;13.00;4.63;;;;;;;;;;4984386;28;20106;-43
2022/12/21 07:09:51;;;;;;;16.05;4.38;;;;;;;;;;4990550;28;20026;-42
2022/12/21 07:12:16;;;;;;;10.18;4.05;;;;;;;;;;4990179;28;20038;-42
2022/12/21 07:14:42;;;;;;;7.40;4.45;;;;;;;;;;4989875;28;20034;-42
2022/12/21 07:17:07;;;;;;;18.45;4.65;;;;;;;;;;4988772;28;20487;-42
2022/12/21 07:19:34;;;;;;;8.45;3.58;;;;;;;;;;4992267;28;20093;-44
2022/12/21 07:21:59;;;;;;;13.13;3.60;;;;;;;;;;4990207;28;20042;-42
2022/12/21 07:24:25;;;;;;;11.73;4.13;;;;;;;;;;4987296;28;20751;-43
2022/12/21 07:26:50;;;;;;;9.98;4.40;;;;;;;;;;4988868;28;20046;-42
2022/12/21 07:29:15;;;;;;;12.50;4.75;;;;;;;;;;4988017;28;20042;-42
2022/12/21 07:31:41;;;;;;;12.05;4.15;;;;;;;;;;4989431;28;20034;-42
2022/12/21 07:34:06;;;;;;;8.85;3.70;;;;;;;;;;4988801;28;20057;-42
2022/12/21 07:36:32;;;;;;;9.20;3.80;;;;;;;;;;4982970;28;20039;-41
2022/12/21 07:38:57;;;;;;;8.48;4.25;;;;;;;;;;4985273;28;20451;-42
2022/12/21 07:41:23;;;;;;;9.35;3.95;;;;;;;;;;4987076;28;20088;-43
2022/12/21 07:43:49;;;;;;;13.95;4.47;;;;;;;;;;4988170;28;20492;-42
2022/12/21 07:46:16;;;;;;;10.70;3.90;;;;;;;;;;4984187;28;20027;-43
2022/12/21 07:48:42;;;;;;;10.95;3.67;;;;;;;;;;4987948;28;20039;-46
2022/12/21 07:51:08;;;;;;;8.57;4.28;;;;;;;;;;4984381;28;20081;-42
2022/12/21 07:53:34;;;;;;;7.90;3.50;;;;;;;;;;4985901;28;20030;-42
2022/12/21 07:56:06;;;;;;;8.10;3.55;;;;;;;;;;4980357;28;20044;-43
2022/12/21 07:58:32;;;;;;;;;;;;;;;;;;4983818;28;20050;-42
2022/12/21 08:01:10;;;;;;;8.05;4.03;;;;;;;;;;4979928;28;19957;-43
2022/12/21 08:03:37;;;;;;;13.35;4.20;;;;;;;;;;4981664;28;20038;-42
2022/12/21 08:06:03;;;;;;;9.15;5.63;;;;;;;;;;4981930;28;20118;-42
2022/12/21 08:08:28;;;;;;;7.47;5.72;;;;;;;;;;4983821;28;20038;-42
2022/12/21 08:10:54;;;;;;;10.93;6.28;;;;;;;;;;4985852;28;20360;-42
2022/12/21 08:13:19;;;;;;;9.80;4.45;;;;;;;;;;4980740;28;20093;-43
2022/12/21 08:15:45;;;;;;;12.88;5.35;;;;;;;;;;4985674;28;20068;-40
2022/12/21 08:18:10;;;;;;;7.28;3.78;;;;;;;;;;4981700;28;20047;-41
2022/12/21 08:20:35;;;;;;;11.10;3.60;;;;;;;;;;4980145;28;20495;-44
2022/12/21 08:23:01;;;;;;;10.13;4.03;;;;;;;;;;4982058;28;20130;-43
2022/12/21 08:25:26;;;;;;;12.43;4.55;;;;;;;;;;4985420;28;20030;-44
2022/12/21 08:27:52;;;;;;;10.18;4.90;;;;;;;;;;4980146;28;20061;-41
2022/12/21 08:30:17;;;;;;;12.63;5.38;;;;;;;;;;4973705;28;20033;-42
2022/12/21 08:32:43;;;;;;;11.70;5.38;;;;;;;;;;4981912;28;20038;-42
2022/12/21 08:35:09;;;;;;;10.73;4.85;;;;;;;;;;4978282;28;20430;-42
2022/12/21 08:37:34;;;;;;;6.78;4.10;;;;;;;;;;4986350;28;20376;-45
2022/12/21 08:40:00;;;;;;;8.20;4.32;;;;;;;;;;4986668;28;20108;-42
2022/12/21 08:42:25;;;;;;;9.30;4.90;;;;;;;;;;4985786;28;20096;-41
2022/12/21 08:44:50;;;;;;;5.15;3.55;;;;;;;;;;4984488;28;20061;-47
2022/12/21 08:47:16;;;;;;;9.77;4.47;;;;;;;;;;4979480;28;20050;-42
2022/12/21 08:49:41;;;;;;;13.27;4.53;;;;;;;;;;4985439;28;20039;-42
2022/12/21 08:52:07;;;;;;;9.77;4.40;;;;;;;;;;4978312;28;20046;-44
2022/12/21 08:54:32;;;;;;;6.65;4.13;;;;;;;;;;4982585;28;20026;-42
2022/12/21 08:56:57;;;;;;;8.57;3.97;;;;;;;;;;4985568;28;20046;-41
2022/12/21 08:59:23;;;;;;;8.43;4.35;;;;;;;;;;4979975;28;20356;-42
2022/12/21 09:01:51;;;;;;;12.82;4.57;;;;;;;;;;4986730;28;20108;-42
2022/12/21 09:04:17;;;;;;;11.18;4.43;;;;;;;;;;4983116;28;20022;-42
2022/12/21 09:06:42;;;;;;;11.40;4.90;;;;;;;;;;4988089;28;20057;-42
2022/12/21 09:09:09;;;;;;;16.70;4.47;;;;;;;;;;4988612;28;20053;-41
2022/12/21 09:11:34;;;;;;;10.73;4.68;;;;;;;;;;4982418;28;20041;-42
2022/12/21 09:14:00;;;;;;;10.02;4.30;;;;;;;;;;4987319;28;20039;-42
2022/12/21 09:16:25;;;;;;;13.18;4.95;;;;;;;;;;4979994;28;20045;-40
2022/12/21 09:18:51;;;;;;;12.93;4.53;;;;;;;;;;4977919;28;20146;-48
2022/12/21 09:21:19;;;;;;;14.77;4.82;;;;;;;;;;4982802;28;20038;-42
2022/12/21 09:23:45;;;;;;;15.20;5.20;;;;;;;;;;4982614;28;20050;-42
2022/12/21 09:26:12;;;;;;;16.08;5.45;;;;;;;;;;4980154;28;20040;-43
2022/12/21 09:28:38;;;;;;;16.35;5.28;;;;;;;;;;4984365;28;20046;-42
2022/12/21 09:31:15;;;;;;;12.10;5.43;;;;;;;;;;4979925;28;20042;-44
2022/12/21 09:33:42;;;;;;;10.43;4.90;;;;;;;;;;4983826;28;20038;-44
2022/12/21 09:36:09;;;;;;;9.05;4.30;;;;;;;;;;4977808;28;20037;-43
2022/12/21 09:38:35;;;;;;;11.02;4.18;;;;;;;;;;4981203;28;20053;-42
2022/12/21 09:41:28;;;;;;;11.45;4.38;;;;;;;;;;4984582;28;20470;-44
2022/12/21 09:44:13;;;;;;;9.10;4.20;;;;;;;;;;4984654;28;20730;-42
2022/12/21 09:46:42;;;;;;;13.00;5.03;;;;;;;;;;4980876;28;20081;-42
2022/12/21 09:49:24;;;;;;;10.10;4.07;;;;;;;;;;4983598;28;20022;-42
2022/12/21 09:51:56;;;;;;;16.08;3.97;;;;;;;;;;4978180;28;20046;-42
2022/12/21 09:54:48;;;;;;;;;;;;;;;;;;4983828;28;20030;-44
2022/12/21 09:57:13;;;;;;;16.90;4.10;;;;;;;;;;4980086;28;19948;-47
2022/12/21 09:59:39;;;;;;;12.95;5.13;;;;;;;;;;4987938;28;20387;-41
2022/12/21 10:02:18;;;;;;;10.52;4.90;;;;;;;;;;4987945;28;20101;-41
2022/12/21 10:05:01;;;;;;;7.57;4.90;;;;;;;;;;4987522;28;20574;-41
2022/12/21 10:07:44;;;;;;;10.18;5.10;;;;;;;;;;4988076;28;20053;-41
2022/12/21 10:10:39;;;;;;;13.20;5.00;;;;;;;;;;4979913;28;20035;-45
2022/12/21 10:13:29;;;;;;;7.55;4.70;;;;;;;;;;4988971;28;20038;-41
2022/12/21 10:16:13;;;;;;;10.30;5.80;;;;;;;;;;4987943;28;20058;-42
2022/12/21 10:19:12;;;;;;;12.65;5.95;;;;;;;;;;4981061;28;20042;-41
2022/12/21 10:21:43;;;;;;;14.50;5.47;;;;;;;;;;4981079;28;20043;-41
2022/12/21 10:24:38;;;;;;;11.30;6.20;;;;;;;;;;4987231;28;20030;-41
2022/12/21 10:27:14;;;;;;;12.35;6.82;;;;;;;;;;4985893;28;20054;-41
2022/12/21 10:29:44;;;;;;;10.82;5.95;;;;;;;;;;4990301;28;20038;-42
2022/12/21 10:32:13;;;;;;;11.80;6.80;;;;;;;;;;4981673;28;20038;-42
2022/12/21 10:34:46;;;;;;;10.45;6.00;;;;;;;;;;4983959;28;20356;-41
2022/12/21 10:37:18;;;;;;;13.15;5.97;;;;;;;;;;4985506;28;20026;-41
2022/12/21 10:39:45;;;;;;;14.82;5.78;;;;;;;;;;4994626;28;20429;-42
2022/12/21 10:42:35;;;;;;;9.07;5.50;;;;;;;;;;4981756;28;20093;-44
2022/12/21 10:45:00;;;;;;;15.20;5.88;;;;;;;;;;4977336;28;20094;-42
2022/12/21 10:47:26;;;;;;;9.57;5.00;;;;;;;;;;4987396;28;20039;-41
2022/12/21 10:50:01;;;;;;;12.32;5.53;;;;;;;;;;4992617;28;20039;-41
2022/12/21 10:52:49;;;;;;;16.17;6.22;;;;;;;;;;4981266;28;20214;-43
2022/12/21 10:55:17;;;;;;;14.88;6.93;;;;;;;;;;4977500;28;20122;-44
2022/12/21 10:57:48;;;;;;;13.30;6.85;;;;;;;;;;4987090;28;20046;-43
2022/12/21 11:00:22;;;;;;;10.93;6.22;;;;;;;;;;4984200;28;20476;-45
2022/12/21 11:02:48;;;;;;;10.63;6.40;;;;;;;;;;4983486;28;20086;-42
2022/12/21 11:05:31;;;;;;;9.38;6.00;;;;;;;;;;4981623;28;20022;-41
2022/12/21 11:08:32;;;;;;;8.05;5.57;;;;;;;;;;4984165;28;20042;-41
2022/12/21 11:11:01;;;;;;;9.93;4.97;;;;;;;;;;4984958;28;20443;-44
2022/12/21 11:13:29;;;;;;;10.23;4.00;;;;;;;;;;4983215;28;20068;-41
2022/12/21 11:16:02;;;;;;;7.68;5.78;;;;;;;;;;4984114;28;20105;-42
2022/12/21 11:18:44;;;;;;;9.38;4.38;;;;;;;;;;4982428;28;20035;-42
2022/12/21 11:21:24;;;;;;;6.30;3.70;;;;;;;;;;4980867;28;20534;-41
2022/12/21 11:23:58;;;;;;;6.53;3.47;;;;;;;;;;4975386;28;20134;-41
2022/12/21 11:26:28;;;;;;;7.05;3.83;;;;;;;;;;4978010;28;20394;-41
2022/12/21 11:29:06;;;;;;;11.52;3.78;;;;;;;;;;4982614;28;20050;-42
2022/12/21 11:31:33;;;;;;;5.35;3.03;;;;;;;;;;4981963;28;20026;-44
2022/12/21 11:33:58;;;;;;;4.00;3.08;;;;;;;;;;4981506;28;20018;-41
2022/12/21 11:36:24;;;;;;;12.18;4.93;;;;;;;;;;4980592;28;20783;-41
2022/12/21 11:38:49;;;;;;;7.72;4.70;;;;;;;;;;4980539;28;23225;-43
2022/12/21 11:41:27;;;;;;;14.20;6.00;;;;;;;;;;4982061;28;20056;-46
2022/12/21 11:43:53;;;;;;;16.58;6.75;;;;;;;;;;4981793;28;20042;-41
2022/12/21 11:46:29;;;;;;;10.75;4.90;;;;;;;;;;4982728;28;20028;-43
2022/12/21 11:49:22;;;;;;;6.47;3.90;;;;;;;;;;4985453;28;20487;-42
2022/12/21 11:52:14;;;;;;;9.43;5.18;;;;;;;;;;4984338;28;20050;-42
2022/12/21 11:54:55;;;;;;;7.65;3.60;;;;;;;;;;4984987;28;20049;-42
2022/12/21 11:57:41;;;;;;;11.65;3.13;;;;;;;;;;4980716;28;20042;-44
2022/12/21 12:00:24;;;;;;;6.45;3.08;;;;;;;;;;4980949;28;20085;-42
2022/12/21 12:02:58;;;;;;;3.58;3.10;;;;;;;;;;4979031;28;20068;-42
2022/12/21 12:05:47;;;;;;;7.10;2.80;;;;;;;;;;4978249;28;20014;-42
2022/12/21 12:08:38;;;;;;;6.28;2.80;;;;;;;;;;4980836;28;20049;-41
2022/12/21 12:11:25;;;;;;;6.40;2.70;;;;;;;;;;4985643;28;20022;-41
2022/12/21 12:14:15;;;;;;;6.07;3.22;;;;;;;;;;4987635;28;20461;-42
2022/12/21 12:17:19;;;;;;;4.15;2.50;;;;;;;;;;4989151;28;20082;-43
2022/12/21 12:19:54;;;;;;;5.03;2.38;;;;;;;;;;4982937;28;20069;-42
2022/12/21 12:22:37;;;;;;;5.82;2.55;;;;;;;;;;4984090;28;20130;-42
2022/12/21 12:25:34;;;;;;;5.07;2.90;;;;;;;;;;4977674;28;20821;-42
2022/12/21 12:28:17;;;;;;;3.72;2.47;;;;;;;;;;4905217;29;20096;-45
2022/12/21 12:31:37;;;;;;;4.90;2.25;;;;;;;;;;4904807;29;20128;-41
2022/12/21 12:34:17;;;;;;;3.20;2.75;;;;;;;;;;4826794;29;20050;-42
2022/12/21 12:37:09;;;;;;;7.90;3.47;;;;;;;;;;4830369;29;20065;-44
2022/12/21 12:39:41;;;;;;;4.60;3.30;;;;;;;;;;4832505;29;20404;-42
2022/12/21 12:42:11;;;;;;;7.20;2.90;;;;;;;;;;4831922;29;20811;-42
2022/12/21 12:44:37;;;;;;;5.80;3.17;;;;;;;;;;4833710;29;20041;-43
2022/12/21 12:47:33;;;;;;;3.88;2.33;;;;;;;;;;4829341;29;20138;-43
2022/12/21 12:50:19;;;;;;;7.70;2.25;;;;;;;;;;4831095;29;20041;-44
2022/12/21 12:53:17;;;;;;;6.00;2.83;;;;;;;;;;4832741;29;20179;-42
2022/12/21 12:56:14;;;;;;;7.68;2.63;;;;;;;;;;4741569;30;20480;-44
2022/12/21 12:59:18;;;;;;;3.25;2.83;;;;;;;;;;4713822;30;20145;-42
2022/12/21 13:01:50;;;;;;;4.22;2.42;;;;;;;;;;4746326;30;20052;-41
2022/12/21 13:04:31;;;;;;;;;;;;;;;;;;4754582;29;20487;-41
2022/12/21 13:07:11;;;;;;;3.33;2.15;;;;;;;;;;4835435;29;19925;-43
2022/12/21 13:09:42;;;;;;;4.70;2.33;;;;;;;;;;4908312;29;20052;-42
2022/12/21 13:12:14;;;;;;;4.38;2.58;;;;;;;;;;4909187;29;20044;-41
2022/12/21 13:15:00;;;;;;;4.05;2.55;;;;;;;;;;4906260;29;20056;-43
2022/12/21 13:17:33;;;;;;;4.38;3.00;;;;;;;;;;4904404;29;20056;-42
2022/12/21 13:20:00;;;;;;;4.70;2.67;;;;;;;;;;4902288;29;20425;-43
2022/12/21 13:22:32;;;;;;;5.07;2.75;;;;;;;;;;4890484;29;20283;-40
2022/12/21 13:25:05;;;;;;;6.50;3.45;;;;;;;;;;4902850;29;20041;-42
2022/12/21 13:27:38;;;;;;;8.02;4.00;;;;;;;;;;4907125;29;20080;-42
2022/12/21 13:30:16;;;;;;;9.88;3.00;;;;;;;;;;4903549;29;20024;-43
2022/12/21 13:32:50;;;;;;;5.63;3.22;;;;;;;;;;4955258;28;20088;-44
2022/12/21 13:35:27;;;;;;;6.07;2.90;;;;;;;;;;4999137;28;20030;-42
2022/12/21 13:38:11;;;;;;;9.55;2.70;;;;;;;;;;4997580;28;20104;-42
2022/12/21 13:40:41;;;;;;;3.50;2.30;;;;;;;;;;4987962;28;20503;-42
2022/12/21 13:43:20;;;;;;;2.80;2.42;;;;;;;;;;4987538;28;20097;-40
2022/12/21 13:45:51;;;;;;;7.25;2.30;;;;;;;;;;4986428;28;20495;-40
2022/12/21 13:48:22;;;;;;;2.80;2.40;;;;;;;;;;4990133;28;20112;-45
2022/12/21 13:50:54;;;;;;;2.55;2.05;;;;;;;;;;4987747;28;20892;-42
2022/12/21 13:53:24;;;;;;;4.88;2.20;;;;;;;;;;4987265;28;20468;-41
2022/12/21 13:56:08;;;;;;;2.53;1.98;;;;;;;;;;4986336;28;20042;-42
2022/12/21 13:58:57;;;;;;;3.92;2.35;;;;;;;;;;4985721;28;20403;-42
2022/12/21 14:01:48;;;;;;;2.25;1.88;;;;;;;;;;4980494;28;20031;-42
2022/12/21 14:04:23;;;;;;;7.80;2.35;;;;;;;;;;4982378;28;20573;-41
2022/12/21 14:07:05;;;;;;;3.30;2.30;;;;;;;;;;4972857;28;20527;-42
2022/12/21 14:09:57;;;;;;;9.18;2.40;;;;;;;;;;4979528;28;20035;-43
2022/12/21 14:12:42;;;;;;;7.32;2.17;;;;;;;;;;4986093;28;20410;-42
2022/12/21 14:15:26;;;;;;;8.43;2.30;;;;;;;;;;4982368;28;20066;-42
2022/12/21 14:17:54;;;;;;;2.75;2.40;;;;;;;;;;4984835;28;20086;-42
2022/12/21 14:20:28;;;;;;;2.50;2.05;;;;;;;;;;4985507;28;20031;-42
2022/12/21 14:23:00;;;;;;;2.58;2.25;;;;;;;;;;4982558;28;20488;-42
2022/12/21 14:25:38;;;;;;;3.60;2.00;;;;;;;;;;4981628;28;20042;-42
2022/12/21 14:28:27;;;;;;;14.52;2.60;;;;;;;;;;4986950;28;20042;-44
2022/12/21 14:31:04;;;;;;;7.30;4.78;;;;;;;;;;4988735;28;20114;-42
2022/12/21 14:33:46;;;;;;;10.45;6.60;;;;;;;;;;4987721;28;20042;-42
2022/12/21 14:36:17;;;;;;;7.53;5.68;;;;;;;;;;4989776;28;20109;-42
2022/12/21 14:38:44;;;;;;;7.05;4.97;;;;;;;;;;4994597;28;20050;-44
2022/12/21 14:41:12;;;;;;;12.23;4.40;;;;;;;;;;4986655;28;20491;-42
2022/12/21 14:44:14;;;;;;;17.27;8.55;;;;;;;;;;4987109;28;20070;-43
2022/12/21 14:46:59;;;;;;;8.98;7.82;;;;;;;;;;4980561;28;20644;-42
2022/12/21 14:49:32;;;;;;;9.75;6.38;;;;;;;;;;4988081;28;20074;-43
2022/12/21 14:51:59;;;;;;;4.53;2.80;;;;;;;;;;4986491;28;20406;-42
2022/12/21 14:54:35;;;;;;;3.97;1.83;;;;;;;;;;4988184;28;20078;-42
2022/12/21 14:57:09;;;;;;;4.55;2.13;;;;;;;;;;4991520;28;20042;-42
2022/12/21 15:00:13;;;;;;;3.90;1.95;;;;;;;;;;4989749;28;20142;-42
2022/12/21 15:02:47;;;;;;;8.27;2.60;;;;;;;;;;4982764;28;20534;-44
2022/12/21 15:05:24;;;;;;;4.78;2.40;;;;;;;;;;4986556;28;20113;-43
2022/12/21 15:08:12;;;;;;;12.25;2.55;;;;;;;;;;4990144;28;20081;-42
2022/12/21 15:10:54;;;;;;;5.35;2.03;;;;;;;;;;4984231;28;20510;-43
2022/12/21 15:13:28;;;;;;;7.07;2.78;;;;;;;;;;4987085;28;20092;-42
2022/12/21 15:16:13;;;;;;;2.85;2.53;;;;;;;;;;4988281;28;20652;-42